createdAt,value
2023-04-15T00:01:06.185Z,96.94
2023-04-15T00:03:34.549Z,97.67
2023-04-15T00:06:01.693Z,97.83
2023-04-15T00:08:28.846Z,97.73
2023-04-15T00:10:55.382Z,96.93
2023-04-15T00:13:21.916Z,96.73
2023-04-15T00:15:48.674Z,97.03
2023-04-15T00:18:15.214Z,96.67
2023-04-15T00:20:41.778Z,96.72
2023-04-15T00:23:08.604Z,97.11
2023-04-15T00:25:35.157Z,96.97
2023-04-15T00:28:01.752Z,96.52
2023-04-15T00:30:28.276Z,96.60
2023-04-15T00:32:55.360Z,96.60
2023-04-15T00:35:21.938Z,96.74
2023-04-15T00:37:48.516Z,96.61
2023-04-15T00:40:18.808Z,96.56
2023-04-15T00:42:45.680Z,96.80
2023-04-15T00:45:12.925Z,96.70
2023-04-15T00:47:42.255Z,96.25
2023-04-15T00:50:09.096Z,96.42
2023-04-15T00:52:36.141Z,97.30
2023-04-15T00:55:04.615Z,97.14
2023-04-15T00:57:31.637Z,96.71
2023-04-15T00:59:58.472Z,96.44
2023-04-15T01:02:25.189Z,96.97
2023-04-15T01:04:52.123Z,97.18
2023-04-15T01:07:18.792Z,96.38
2023-04-15T01:09:45.734Z,96.74
2023-04-15T01:12:14.112Z,95.84
2023-04-15T01:14:40.838Z,96.50
2023-04-15T01:17:07.542Z,96.57
2023-04-15T01:19:34.262Z,96.33
2023-04-15T01:22:02.902Z,96.85
2023-04-15T01:24:31.801Z,96.42
2023-04-15T01:26:58.509Z,96.24
2023-04-15T01:29:25.123Z,96.44
2023-04-15T01:31:53.061Z,97.10
2023-04-15T01:34:19.758Z,96.46
2023-04-15T01:36:46.822Z,96.52
2023-04-15T01:39:13.561Z,97.10
2023-04-15T01:41:40.891Z,96.14
2023-04-15T01:44:08.071Z,96.93
2023-04-15T01:46:36.471Z,97.67
2023-04-15T01:49:03.437Z,97.00
2023-04-15T01:51:30.017Z,97.43
2023-04-15T01:53:59.309Z,97.18
2023-04-15T01:56:26.621Z,97.60
2023-04-15T01:58:53.614Z,97.17
2023-04-15T02:01:20.751Z,97.12
2023-04-15T02:03:48.025Z,98.01
2023-04-15T02:06:15.043Z,97.90
2023-04-15T02:08:41.605Z,97.57
2023-04-15T02:11:08.427Z,97.60
2023-04-15T02:13:35.071Z,97.57
2023-04-15T02:16:01.667Z,97.43
2023-04-15T02:18:28.348Z,97.56
2023-04-15T02:20:56.679Z,97.50
2023-04-15T02:23:23.215Z,97.49
2023-04-15T02:25:53.313Z,97.48
2023-04-15T02:28:21.425Z,97.69
2023-04-15T02:30:52.567Z,96.91
2023-04-15T02:33:19.451Z,97.34
2023-04-15T02:35:46.033Z,97.26
2023-04-15T02:38:14.203Z,96.86
2023-04-15T02:40:40.949Z,97.29
2023-04-15T02:43:07.634Z,97.05
2023-04-15T02:45:34.410Z,97.35
2023-04-15T02:48:06.227Z,97.65
2023-04-15T02:50:33.450Z,97.13
2023-04-15T02:53:01.725Z,97.51
2023-04-15T02:55:28.848Z,97.64
2023-04-15T02:57:55.761Z,97.29
2023-04-15T03:00:22.677Z,97.86
2023-04-15T03:02:52.502Z,98.19
2023-04-15T03:05:19.213Z,98.21
2023-04-15T03:07:45.777Z,97.56
2023-04-15T03:10:12.362Z,97.38
2023-04-15T03:12:39.485Z,96.83
2023-04-15T03:15:06.865Z,97.24
2023-04-15T03:17:33.611Z,97.07
2023-04-15T03:20:02.468Z,96.96
2023-04-15T03:22:29.020Z,97.55
2023-04-15T03:24:55.572Z,97.19
2023-04-15T03:27:22.170Z,96.86
2023-04-15T03:29:48.710Z,96.95
2023-04-15T03:32:15.512Z,97.37
2023-04-15T03:34:42.356Z,97.07
2023-04-15T03:37:08.914Z,97.40
2023-04-15T03:39:35.768Z,97.62
2023-04-15T03:42:03.458Z,97.61
2023-04-15T03:44:30.581Z,97.46
2023-04-15T03:46:57.108Z,98.03
2023-04-15T03:49:24.544Z,97.84
2023-04-15T03:51:51.186Z,97.34
2023-04-15T03:54:17.690Z,97.08
2023-04-15T03:56:44.190Z,97.12
2023-04-15T03:59:11.434Z,97.03
2023-04-15T04:01:38.012Z,97.77
2023-04-15T04:04:04.778Z,97.33
2023-04-15T04:06:31.633Z,97.37
2023-04-15T04:08:58.159Z,97.40
2023-04-15T04:11:24.727Z,97.39
2023-04-15T04:13:51.249Z,97.58
2023-04-15T04:16:17.833Z,97.59
2023-04-15T04:18:44.407Z,97.43
2023-04-15T04:21:11.273Z,97.90
2023-04-15T04:23:37.826Z,97.78
2023-04-15T04:26:04.359Z,97.57
2023-04-15T04:28:30.890Z,97.81
2023-04-15T04:30:57.476Z,98.19
2023-04-15T04:33:24.343Z,98.37
2023-04-15T04:35:50.918Z,97.75
2023-04-15T04:38:17.419Z,97.85
2023-04-15T04:40:43.998Z,98.62
2023-04-15T04:43:10.645Z,98.56
2023-04-15T04:45:37.263Z,98.33
2023-04-15T04:48:07.265Z,98.17
2023-04-15T04:50:34.749Z,98.17
2023-04-15T04:53:01.860Z,98.27
2023-04-15T04:55:28.607Z,98.63
2023-04-15T04:57:55.200Z,98.95
2023-04-15T05:00:21.757Z,98.46
2023-04-15T05:02:48.659Z,98.85
2023-04-15T05:05:15.357Z,99.33
2023-04-15T05:07:42.153Z,98.43
2023-04-15T05:10:09.193Z,98.00
2023-04-15T05:12:37.504Z,98.33
2023-04-15T05:15:05.768Z,98.02
2023-04-15T05:17:33.437Z,98.14
2023-04-15T05:20:00.092Z,97.97
2023-04-15T05:22:26.732Z,98.12
2023-04-15T05:24:53.259Z,97.62
2023-04-15T05:27:19.756Z,97.03
2023-04-15T05:29:46.429Z,97.51
2023-04-15T05:32:12.979Z,97.88
2023-04-15T05:34:39.558Z,97.93
2023-04-15T05:37:06.115Z,97.85
2023-04-15T05:39:32.785Z,97.54
2023-04-15T05:42:00.049Z,97.66
2023-04-15T05:44:26.908Z,96.93
2023-04-15T05:47:03.689Z,97.41
2023-04-15T05:49:30.698Z,97.58
2023-04-15T05:51:57.207Z,97.82
2023-04-15T05:54:23.731Z,96.93
2023-04-15T05:56:50.367Z,96.88
2023-04-15T05:59:16.968Z,97.32
2023-04-15T06:01:43.924Z,96.78
2023-04-15T06:04:11.531Z,97.07
2023-04-15T06:06:38.469Z,97.48
2023-04-15T06:09:05.276Z,97.32
2023-04-15T06:11:31.910Z,96.80
2023-04-15T06:13:58.431Z,97.56
2023-04-15T06:16:25.017Z,97.88
2023-04-15T06:18:51.526Z,97.17
2023-04-15T06:21:18.080Z,96.89
2023-04-15T06:23:44.902Z,97.52
2023-04-15T06:26:11.512Z,97.38
2023-04-15T06:28:38.064Z,96.18
2023-04-15T06:31:04.748Z,96.61
2023-04-15T06:33:32.079Z,97.14
2023-04-15T06:35:58.632Z,96.68
2023-04-15T06:38:25.359Z,96.53
2023-04-15T06:40:51.878Z,96.00
2023-04-15T06:43:18.482Z,95.46
2023-04-15T06:45:45.031Z,96.64
2023-04-15T06:48:12.092Z,96.02
2023-04-15T06:50:38.825Z,96.30
2023-04-15T06:53:06.927Z,96.10
2023-04-15T06:55:34.718Z,95.43
2023-04-15T06:58:02.232Z,94.44
2023-04-15T07:00:29.163Z,94.72
2023-04-15T07:02:56.837Z,94.51
2023-04-15T07:05:23.595Z,94.15
2023-04-15T07:07:50.658Z,93.66
2023-04-15T07:10:17.366Z,93.34
2023-04-15T07:12:44.374Z,92.75
2023-04-15T07:15:11.956Z,93.55
2023-04-15T07:17:38.781Z,93.29
2023-04-15T07:20:06.195Z,92.19
2023-04-15T07:22:33.176Z,91.45
2023-04-15T07:25:00.035Z,92.01
2023-04-15T07:27:27.862Z,92.48
2023-04-15T07:29:55.163Z,93.18
2023-04-15T07:32:22.056Z,92.64
2023-04-15T07:34:48.866Z,92.97
2023-04-15T07:37:15.876Z,92.58
2023-04-15T07:39:43.030Z,90.73
2023-04-15T07:42:10.295Z,90.14
2023-04-15T07:44:37.242Z,89.11
2023-04-15T07:47:04.580Z,88.93
2023-04-15T07:49:32.866Z,90.05
2023-04-15T07:54:27.618Z,87.92
2023-04-15T07:56:54.346Z,88.91
2023-04-15T07:59:21.569Z,86.98
2023-04-15T08:01:48.327Z,86.55
2023-04-15T08:04:15.201Z,85.32
2023-04-15T08:06:41.876Z,84.79
2023-04-15T08:09:08.464Z,81.71
2023-04-15T08:11:35.057Z,82.80
2023-04-15T08:14:01.910Z,80.64
2023-04-15T08:16:28.609Z,81.20
2023-04-15T08:18:56.457Z,80.71
2023-04-15T08:21:23.768Z,80.13
2023-04-15T08:23:52.335Z,79.26
2023-04-15T08:26:20.342Z,80.75
2023-04-15T08:28:47.384Z,79.63
2023-04-15T08:31:18.957Z,79.55
2023-04-15T08:33:45.971Z,79.14
2023-04-15T08:36:13.838Z,79.36
2023-04-15T08:38:40.561Z,78.01
2023-04-15T08:41:26.792Z,80.21
2023-04-15T08:44:06.353Z,79.81
2023-04-15T08:46:35.127Z,80.13
2023-04-15T08:49:05.407Z,76.32
2023-04-15T08:51:34.055Z,80.10
2023-04-15T08:54:02.951Z,80.00
2023-04-15T08:56:33.372Z,80.16
2023-04-15T08:59:01.523Z,81.85
2023-04-15T09:01:29.577Z,80.41
2023-04-15T09:03:58.083Z,80.57
2023-04-15T09:06:26.553Z,77.77
2023-04-15T09:08:53.964Z,77.39
2023-04-15T09:11:22.751Z,79.52
2023-04-15T09:13:50.187Z,79.89
2023-04-15T09:16:16.843Z,83.41
2023-04-15T09:18:43.486Z,85.23
2023-04-15T09:21:13.665Z,86.09
2023-04-15T09:23:54.241Z,88.07
2023-04-15T09:26:34.642Z,86.40
2023-04-15T09:29:09.528Z,83.08
2023-04-15T09:31:37.403Z,83.28
2023-04-15T09:34:04.340Z,84.47
2023-04-15T09:36:51.839Z,83.62
2023-04-15T09:39:18.404Z,84.22
2023-04-15T09:41:45.211Z,81.66
2023-04-15T09:44:25.588Z,81.67
2023-04-15T09:46:52.187Z,82.70
2023-04-15T09:49:19.547Z,83.28
2023-04-15T09:51:54.364Z,83.71
2023-04-15T09:54:38.981Z,82.75
2023-04-15T09:57:07.351Z,82.75
2023-04-15T09:59:33.978Z,82.95
2023-04-15T10:02:01.078Z,82.54
2023-04-15T10:04:28.753Z,81.15
2023-04-15T10:06:56.679Z,82.38
2023-04-15T10:09:23.268Z,82.09
2023-04-15T10:11:50.355Z,82.06
2023-04-15T10:14:18.378Z,81.93
2023-04-15T10:16:49.034Z,82.09
2023-04-15T10:19:19.164Z,82.50
2023-04-15T10:21:46.616Z,82.49
2023-04-15T10:24:13.499Z,81.64
2023-04-15T10:26:40.608Z,79.87
2023-04-15T10:29:07.949Z,79.47
2023-04-15T10:31:36.306Z,80.20
2023-04-15T10:34:06.449Z,79.69
2023-04-15T10:36:33.364Z,78.51
2023-04-15T10:38:59.873Z,78.13
2023-04-15T10:41:29.901Z,79.46
2023-04-15T10:44:03.312Z,80.83
2023-04-15T10:46:37.496Z,78.12
2023-04-15T10:49:30.409Z,77.39
2023-04-15T10:51:59.894Z,78.28
2023-04-15T10:54:26.336Z,78.59
2023-04-15T10:57:08.094Z,78.85
2023-04-15T10:59:59.110Z,78.71
2023-04-15T11:02:46.625Z,78.27
2023-04-15T11:05:15.565Z,76.56
2023-04-15T11:07:49.516Z,74.07
2023-04-15T11:10:25.603Z,74.16
2023-04-15T11:12:54.358Z,75.22
2023-04-15T11:15:36.414Z,73.94
2023-04-15T11:18:20.375Z,74.39
2023-04-15T11:20:56.559Z,76.20
2023-04-15T11:23:32.291Z,76.55
2023-04-15T11:26:00.561Z,77.53
2023-04-15T11:28:31.315Z,76.32
2023-04-15T11:30:58.809Z,75.73
2023-04-15T11:33:25.989Z,74.06
2023-04-15T11:35:54.604Z,75.91
2023-04-15T11:38:22.276Z,76.13
2023-04-15T11:40:49.121Z,74.78
2023-04-15T11:43:20.313Z,75.66
2023-04-15T11:45:55.938Z,74.77
2023-04-15T11:48:34.123Z,75.37
2023-04-15T11:51:02.813Z,74.21
2023-04-15T11:53:49.808Z,72.40
2023-04-15T11:56:26.559Z,73.63
2023-04-15T11:59:02.269Z,74.02
2023-04-15T12:01:33.572Z,74.10
2023-04-15T12:04:01.548Z,73.44
2023-04-15T12:06:35.057Z,73.87
2023-04-15T12:09:15.265Z,75.58
2023-04-15T12:11:44.849Z,74.27
2023-04-15T12:14:24.336Z,73.08
2023-04-15T12:16:58.219Z,73.76
2023-04-15T12:19:28.572Z,72.35
2023-04-15T12:22:04.108Z,75.06
2023-04-15T12:24:35.094Z,73.10
2023-04-15T12:27:12.692Z,72.80
2023-04-15T12:29:41.823Z,73.98
2023-04-15T12:32:09.302Z,72.17
2023-04-15T12:34:37.157Z,70.71
2023-04-15T12:37:06.022Z,73.66
2023-04-15T12:39:36.662Z,70.21
2023-04-15T12:42:04.390Z,71.59
2023-04-15T12:44:31.328Z,71.70
2023-04-15T12:46:58.227Z,72.13
2023-04-15T12:49:25.536Z,73.38
2023-04-15T12:52:02.764Z,73.01
2023-04-15T12:54:31.029Z,73.50
2023-04-15T12:56:58.051Z,72.37
2023-04-15T12:59:25.039Z,73.78
2023-04-15T13:01:53.444Z,72.76
2023-04-15T13:04:21.170Z,73.84
2023-04-15T13:06:48.114Z,72.80
2023-04-15T13:09:15.681Z,72.76
2023-04-15T13:11:42.555Z,72.83
2023-04-15T13:14:11.358Z,71.79
2023-04-15T13:16:38.081Z,70.60
2023-04-15T13:19:04.929Z,68.99
2023-04-15T13:21:35.148Z,69.08
2023-04-15T13:24:02.859Z,69.43
2023-04-15T13:26:29.690Z,70.24
2023-04-15T13:28:56.679Z,68.47
2023-04-15T13:31:23.397Z,72.46
2023-04-15T13:33:50.260Z,70.24
2023-04-15T13:36:16.778Z,70.01
2023-04-15T13:38:43.338Z,71.65
2023-04-15T13:41:09.893Z,71.94
2023-04-15T13:43:36.618Z,71.83
2023-04-15T13:46:03.461Z,70.70
2023-04-15T13:48:30.129Z,70.23
2023-04-15T13:50:56.715Z,73.90
2023-04-15T13:53:33.976Z,71.03
2023-04-15T13:56:07.338Z,71.29
2023-04-15T13:58:33.854Z,71.70
2023-04-15T14:01:00.889Z,73.33
2023-04-15T14:03:28.750Z,72.08
2023-04-15T14:05:56.963Z,69.38
2023-04-15T14:08:24.945Z,70.44
2023-04-15T14:10:51.498Z,69.66
2023-04-15T14:13:19.541Z,71.05
2023-04-15T14:15:46.553Z,68.73
2023-04-15T14:18:13.210Z,70.84
2023-04-15T14:20:39.716Z,68.87
2023-04-15T14:23:06.405Z,70.72
2023-04-15T14:25:33.956Z,69.07
2023-04-15T14:28:01.530Z,68.84
2023-04-15T14:30:28.266Z,69.55
2023-04-15T14:32:54.893Z,68.40
2023-04-15T14:35:21.620Z,67.06
2023-04-15T14:37:48.129Z,68.35
2023-04-15T14:40:14.658Z,66.72
2023-04-15T14:42:41.196Z,68.16
2023-04-15T14:45:08.401Z,67.94
2023-04-15T14:47:34.980Z,71.09
2023-04-15T14:50:02.439Z,69.06
2023-04-15T14:52:29.271Z,67.67
2023-04-15T14:54:55.952Z,66.02
2023-04-15T14:57:22.494Z,64.15
2023-04-15T14:59:49.004Z,63.41
2023-04-15T15:02:36.856Z,62.87
2023-04-15T15:05:05.574Z,63.93
2023-04-15T15:07:32.301Z,66.85
2023-04-15T15:09:58.837Z,64.87
2023-04-15T15:12:25.574Z,65.67
2023-04-15T15:14:52.136Z,65.81
2023-04-15T15:17:18.739Z,65.53
2023-04-15T15:19:45.400Z,65.40
2023-04-15T15:22:11.921Z,64.49
2023-04-15T15:24:38.518Z,64.85
2023-04-15T15:27:05.226Z,65.09
2023-04-15T15:29:31.791Z,64.76
2023-04-15T15:31:59.440Z,66.29
2023-04-15T15:34:26.516Z,65.89
2023-04-15T15:36:55.058Z,66.77
2023-04-15T15:39:23.437Z,64.33
2023-04-15T15:41:50.628Z,65.83
2023-04-15T15:44:17.139Z,64.47
2023-04-15T15:46:43.877Z,65.60
2023-04-15T15:49:11.167Z,65.66
2023-04-15T15:51:37.732Z,65.96
2023-04-15T15:54:04.253Z,68.43
2023-04-15T15:56:30.770Z,66.52
2023-04-15T15:58:57.329Z,66.80
2023-04-15T16:01:24.020Z,67.42
2023-04-15T16:03:51.108Z,68.62
2023-04-15T16:06:17.818Z,67.24
2023-04-15T16:08:44.553Z,69.19
2023-04-15T16:11:11.128Z,69.12
2023-04-15T16:13:37.705Z,69.53
2023-04-15T16:16:04.388Z,69.73
2023-04-15T16:18:31.789Z,70.13
2023-04-15T16:20:59.534Z,70.21
2023-04-15T16:23:26.103Z,68.45
2023-04-15T16:25:52.781Z,68.77
2023-04-15T16:28:26.285Z,69.94
2023-04-15T16:30:53.900Z,69.29
2023-04-15T16:33:20.689Z,69.79
2023-04-15T16:35:47.282Z,70.07
2023-04-15T16:38:14.001Z,70.56
2023-04-15T16:40:40.724Z,69.33
2023-04-15T16:43:08.208Z,69.04
2023-04-15T16:45:34.890Z,69.90
2023-04-15T16:48:01.575Z,69.66
2023-04-15T16:50:28.422Z,69.83
2023-04-15T16:52:55.023Z,71.95
2023-04-15T16:55:21.724Z,70.16
2023-04-15T16:58:01.722Z,71.44
2023-04-15T17:00:29.635Z,71.12
2023-04-15T17:02:56.329Z,71.07
2023-04-15T17:05:23.028Z,71.54
2023-04-15T17:07:49.607Z,70.72
2023-04-15T17:10:16.501Z,70.45
2023-04-15T17:12:43.114Z,72.77
2023-04-15T17:15:10.079Z,72.38
2023-04-15T17:17:36.670Z,73.20
2023-04-15T17:20:03.759Z,71.41
2023-04-15T17:22:30.327Z,72.46
2023-04-15T17:24:56.841Z,73.67
2023-04-15T17:27:24.680Z,74.76
2023-04-15T17:29:51.466Z,73.61
2023-04-15T17:32:18.086Z,74.50
2023-04-15T17:34:49.657Z,76.49
2023-04-15T17:37:18.340Z,78.08
2023-04-15T17:39:45.057Z,76.65
2023-04-15T17:42:12.104Z,75.60
2023-04-15T17:44:38.977Z,75.27
2023-04-15T17:47:05.690Z,76.73
2023-04-15T17:49:34.143Z,75.56
2023-04-15T17:52:01.264Z,76.77
2023-04-15T17:54:28.117Z,77.07
2023-04-15T17:56:54.923Z,77.11
2023-04-15T17:59:21.534Z,76.97
2023-04-15T18:01:48.257Z,78.13
2023-04-15T18:04:14.993Z,78.35
2023-04-15T18:06:41.904Z,77.76
2023-04-15T18:09:11.437Z,78.38
2023-04-15T18:11:40.059Z,77.62
2023-04-15T18:14:06.926Z,79.15
2023-04-15T18:16:33.909Z,78.65
2023-04-15T18:19:01.169Z,79.51
2023-04-15T18:21:30.073Z,78.76
2023-04-15T18:23:56.599Z,79.38
2023-04-15T18:26:23.128Z,80.07
2023-04-15T18:28:49.864Z,80.17
2023-04-15T18:31:16.434Z,80.63
2023-04-15T18:33:42.985Z,80.77
2023-04-15T18:36:10.339Z,81.16
2023-04-15T18:38:36.912Z,81.19
2023-04-15T18:41:05.375Z,81.17
2023-04-15T18:43:32.478Z,81.61
2023-04-15T18:46:00.012Z,81.68
2023-04-15T18:48:27.024Z,83.68
2023-04-15T18:50:54.182Z,82.15
2023-04-15T18:53:21.694Z,83.48
2023-04-15T18:55:48.339Z,83.00
2023-04-15T18:58:14.912Z,84.16
2023-04-15T19:00:43.679Z,84.50
2023-04-15T19:03:11.393Z,86.37
2023-04-15T19:05:38.059Z,86.35
2023-04-15T19:08:04.733Z,84.67
2023-04-15T19:10:31.334Z,84.91
2023-04-15T19:12:57.922Z,84.80
2023-04-15T19:15:24.438Z,84.31
2023-04-15T19:17:51.024Z,86.25
2023-04-15T19:20:17.635Z,85.24
2023-04-15T19:22:44.819Z,86.18
2023-04-15T19:25:11.441Z,86.42
2023-04-15T19:27:41.187Z,88.91
2023-04-15T19:30:08.280Z,89.62
2023-04-15T19:32:35.780Z,88.68
2023-04-15T19:35:02.479Z,88.70
2023-04-15T19:37:29.148Z,88.16
2023-04-15T19:39:56.111Z,89.29
2023-04-15T19:42:22.844Z,89.80
2023-04-15T19:44:49.430Z,90.93
2023-04-15T19:47:16.357Z,91.73
2023-04-15T19:49:43.030Z,89.38
2023-04-15T19:52:09.562Z,89.61
2023-04-15T19:54:36.162Z,89.21
2023-04-15T19:57:03.007Z,88.19
2023-04-15T19:59:29.533Z,88.28
2023-04-15T20:01:56.240Z,89.44
2023-04-15T20:04:22.973Z,89.87
2023-04-15T20:06:50.049Z,88.71
2023-04-15T20:09:16.854Z,89.27
2023-04-15T20:12:47.458Z,88.27
2023-04-15T20:14:30.051Z,88.93
2023-04-15T20:16:56.906Z,89.46
2023-04-15T20:19:23.510Z,89.17
2023-04-15T20:21:51.998Z,88.64
2023-04-15T20:24:20.223Z,88.65
2023-04-15T20:26:47.002Z,88.50
2023-04-15T20:29:13.982Z,88.74
2023-04-15T20:31:40.786Z,89.54
2023-04-15T20:34:08.755Z,89.70
2023-04-15T20:36:36.523Z,89.57
2023-04-15T20:39:03.168Z,89.52
2023-04-15T20:41:29.886Z,90.13
2023-04-15T20:43:56.401Z,89.80
2023-04-15T20:46:24.538Z,89.80
2023-04-15T20:48:52.451Z,89.92
2023-04-15T20:51:19.098Z,90.37
2023-04-15T20:53:45.597Z,90.80
2023-04-15T20:56:12.115Z,90.82
2023-04-15T20:58:38.796Z,90.51
2023-04-15T21:01:05.388Z,90.90
2023-04-15T21:03:32.217Z,90.66
2023-04-15T21:05:58.921Z,90.23
2023-04-15T21:08:29.514Z,90.86
2023-04-15T21:10:56.919Z,91.49
2023-04-15T21:13:24.004Z,91.05
2023-04-15T21:15:53.397Z,91.26
2023-04-15T21:18:21.062Z,91.78
2023-04-15T21:20:55.398Z,92.45
2023-04-15T21:23:21.968Z,92.84
2023-04-15T21:25:48.500Z,92.34
2023-04-15T21:28:15.026Z,92.26
2023-04-15T21:30:41.542Z,92.63
2023-04-15T21:33:08.098Z,92.26
2023-04-15T21:35:34.622Z,91.64
2023-04-15T21:38:01.145Z,91.72
2023-04-15T21:40:27.674Z,92.09
2023-04-15T21:42:54.240Z,91.80
2023-04-15T21:45:20.782Z,92.15
2023-04-15T21:48:01.388Z,92.40
2023-04-15T21:50:34.014Z,92.39
2023-04-15T21:53:00.552Z,92.03
2023-04-15T21:55:27.223Z,92.53
2023-04-15T21:57:53.724Z,93.45
2023-04-15T22:00:21.284Z,93.96
2023-04-15T22:02:47.990Z,93.28
2023-04-15T22:05:14.684Z,92.99
2023-04-15T22:07:41.787Z,92.82
2023-04-15T22:10:08.938Z,92.83
2023-04-15T22:12:35.465Z,93.11
2023-04-15T22:15:02.712Z,91.69
2023-04-15T22:17:29.267Z,91.72
2023-04-15T22:19:55.833Z,91.27
2023-04-15T22:22:22.377Z,92.14
2023-04-15T22:25:00.375Z,92.41
2023-04-15T22:27:26.945Z,91.85
2023-04-15T22:29:53.634Z,91.05
2023-04-15T22:32:20.327Z,91.97
2023-04-15T22:34:46.889Z,91.52
2023-04-15T22:37:13.664Z,91.13
2023-04-15T22:39:40.328Z,91.09
2023-04-15T22:42:06.845Z,91.75
2023-04-15T22:44:33.360Z,91.78
2023-04-15T22:46:59.883Z,92.44
2023-04-15T22:49:26.971Z,92.63
2023-04-15T22:51:53.500Z,93.35
2023-04-15T22:54:20.058Z,93.19
2023-04-15T22:56:46.602Z,92.93
2023-04-15T22:59:13.130Z,92.92
2023-04-15T23:01:39.749Z,92.94
2023-04-15T23:04:23.469Z,92.50
2023-04-15T23:06:52.779Z,92.67
2023-04-15T23:09:19.303Z,91.96
2023-04-15T23:11:47.035Z,92.36
2023-04-15T23:14:13.611Z,92.41
2023-04-15T23:16:40.309Z,92.53
2023-04-15T23:19:07.143Z,92.80
2023-04-15T23:21:33.901Z,92.73
2023-04-15T23:24:00.574Z,92.70
2023-04-15T23:26:27.415Z,92.40
2023-04-15T23:28:55.639Z,92.18
2023-04-15T23:31:22.247Z,92.19
2023-04-15T23:33:48.779Z,92.45
2023-04-15T23:36:15.401Z,92.95
2023-04-15T23:38:42.285Z,93.44
2023-04-15T23:41:09.887Z,93.22
2023-04-15T23:43:36.658Z,93.58
2023-04-15T23:46:03.538Z,93.95
2023-04-15T23:48:30.197Z,94.25
2023-04-15T23:50:56.819Z,94.25
2023-04-15T23:53:23.375Z,94.78
2023-04-15T23:55:49.989Z,94.82
2023-04-15T23:58:16.673Z,95.67
